createdAt,value
2022-12-16T00:01:36.896Z,11.80
2022-12-16T00:04:06.271Z,12.13
2022-12-16T00:06:35.470Z,13.80
2022-12-16T00:09:03.669Z,12.10
2022-12-16T00:11:32.369Z,13.27
2022-12-16T00:14:00.492Z,12.80
2022-12-16T00:16:28.731Z,12.20
2022-12-16T00:18:56.694Z,10.83
2022-12-16T00:21:29.589Z,12.80
2022-12-16T00:23:58.170Z,12.67
2022-12-16T00:26:26.207Z,12.93
2022-12-16T00:28:54.161Z,13.07
2022-12-16T00:31:22.951Z,11.43
2022-12-16T00:33:52.933Z,11.60
2022-12-16T00:36:20.878Z,12.27
2022-12-16T00:38:51.944Z,13.10
2022-12-16T00:41:19.939Z,14.03
2022-12-16T00:43:47.874Z,13.23
2022-12-16T00:46:15.978Z,12.30
2022-12-16T00:48:44.119Z,11.47
2022-12-16T00:51:12.007Z,12.80
2022-12-16T00:53:39.968Z,12.70
2022-12-16T00:56:11.718Z,12.07
2022-12-16T00:58:39.719Z,13.10
2022-12-16T01:01:08.329Z,12.60
2022-12-16T01:03:37.051Z,11.93
2022-12-16T01:06:10.218Z,13.80
2022-12-16T01:08:38.135Z,12.80
2022-12-16T01:11:06.359Z,11.90
2022-12-16T01:13:36.072Z,12.97
2022-12-16T01:16:04.438Z,14.37
2022-12-16T01:18:32.891Z,11.67
2022-12-16T01:21:04.852Z,13.13
2022-12-16T01:23:33.541Z,13.80
2022-12-16T01:26:02.829Z,14.67
2022-12-16T01:28:31.159Z,12.73
2022-12-16T01:31:02.527Z,14.93
2022-12-16T01:33:31.649Z,12.70
2022-12-16T01:36:01.765Z,13.40
2022-12-16T01:38:29.722Z,13.73
2022-12-16T01:40:57.750Z,14.00
2022-12-16T01:43:28.212Z,14.27
2022-12-16T01:45:59.794Z,14.33
2022-12-16T01:48:37.282Z,14.63
2022-12-16T01:51:09.157Z,13.10
2022-12-16T01:53:38.483Z,14.73
2022-12-16T01:56:07.595Z,14.70
2022-12-16T01:58:38.100Z,14.10
2022-12-16T02:01:07.137Z,13.87
2022-12-16T02:03:38.043Z,12.63
2022-12-16T02:06:08.399Z,13.70
2022-12-16T02:08:36.786Z,13.80
2022-12-16T02:11:28.814Z,14.33
2022-12-16T02:14:36.931Z,15.33
2022-12-16T02:17:15.955Z,14.87
2022-12-16T02:20:09.996Z,12.50
2022-12-16T02:22:54.025Z,13.30
2022-12-16T02:25:39.886Z,12.30
2022-12-16T02:28:13.286Z,12.73
2022-12-16T02:31:02.847Z,13.10
2022-12-16T02:33:45.056Z,13.90
2022-12-16T02:36:26.468Z,12.97
2022-12-16T02:39:00.737Z,14.20
2022-12-16T02:41:38.745Z,13.17
2022-12-16T02:44:08.977Z,12.30
2022-12-16T02:46:44.250Z,14.30
2022-12-16T02:49:46.173Z,13.13
2022-12-16T02:52:16.228Z,13.93
2022-12-16T02:54:45.706Z,12.60
2022-12-16T02:57:36.321Z,12.70
2022-12-16T03:00:08.886Z,12.13
2022-12-16T03:02:49.327Z,13.00
2022-12-16T03:05:22.470Z,10.70
2022-12-16T03:07:52.947Z,12.20
2022-12-16T03:10:26.856Z,11.73
2022-12-16T03:12:56.488Z,12.40
2022-12-16T03:15:27.553Z,12.03
2022-12-16T03:17:59.689Z,12.20
2022-12-16T03:20:33.180Z,12.30
2022-12-16T03:23:05.034Z,12.00
2022-12-16T03:25:36.576Z,13.37
2022-12-16T03:28:14.896Z,13.10
2022-12-16T03:30:50.221Z,10.60
2022-12-16T03:33:28.240Z,12.73
2022-12-16T03:36:00.680Z,11.60
2022-12-16T03:38:30.843Z,12.00
2022-12-16T03:41:01.163Z,11.73
2022-12-16T03:43:30.328Z,12.53
2022-12-16T03:46:05.098Z,12.50
2022-12-16T03:48:35.490Z,12.07
2022-12-16T03:51:04.096Z,12.70
2022-12-16T03:53:32.695Z,12.73
2022-12-16T03:56:01.324Z,11.80
2022-12-16T03:58:29.503Z,12.70
2022-12-16T04:00:57.729Z,12.70
2022-12-16T04:03:25.806Z,12.23
2022-12-16T04:05:55.395Z,12.00
2022-12-16T04:08:23.824Z,11.40
2022-12-16T04:11:10.230Z,10.90
2022-12-16T04:13:56.045Z,11.63
2022-12-16T04:16:45.311Z,12.57
2022-12-16T04:19:37.405Z,12.10
2022-12-16T04:22:28.118Z,11.80
2022-12-16T04:24:56.584Z,12.83
2022-12-16T04:27:28.412Z,11.47
2022-12-16T04:30:14.191Z,11.10
2022-12-16T04:33:00.364Z,12.07
2022-12-16T04:35:46.167Z,12.83
2022-12-16T04:38:48.367Z,12.40
2022-12-16T04:41:34.212Z,10.67
2022-12-16T04:44:20.556Z,11.30
2022-12-16T04:47:06.613Z,12.03
2022-12-16T04:49:51.793Z,10.73
2022-12-16T04:52:37.978Z,10.67
2022-12-16T04:55:31.680Z,10.70
2022-12-16T04:58:19.382Z,10.83
2022-12-16T05:01:06.970Z,11.93
2022-12-16T05:03:53.961Z,10.50
2022-12-16T05:06:40.336Z,11.23
2022-12-16T05:09:26.929Z,10.63
2022-12-16T05:12:14.671Z,11.10
2022-12-16T05:15:00.853Z,13.33
2022-12-16T05:17:46.433Z,10.60
2022-12-16T05:20:32.523Z,12.97
2022-12-16T05:23:18.502Z,12.13
2022-12-16T05:26:03.940Z,11.43
2022-12-16T05:28:50.865Z,11.27
2022-12-16T05:31:36.498Z,11.73
2022-12-16T05:34:22.657Z,10.63
2022-12-16T05:37:08.932Z,10.37
2022-12-16T05:39:57.049Z,11.87
2022-12-16T05:42:43.876Z,10.87
2022-12-16T05:45:30.910Z,11.53
2022-12-16T05:48:16.789Z,10.90
2022-12-16T05:51:02.357Z,10.70
2022-12-16T05:53:48.099Z,10.10
2022-12-16T05:56:34.048Z,11.50
2022-12-16T05:59:19.834Z,11.37
2022-12-16T06:02:09.837Z,10.87
2022-12-16T06:04:58.028Z,12.67
2022-12-16T06:07:44.481Z,10.13
2022-12-16T06:10:33.386Z,10.50
2022-12-16T06:13:19.465Z,9.83
2022-12-16T06:16:08.977Z,10.73
2022-12-16T06:18:56.942Z,10.20
2022-12-16T06:21:43.108Z,12.13
2022-12-16T06:24:28.808Z,10.00
2022-12-16T06:27:15.751Z,9.17
2022-12-16T06:30:02.135Z,10.50
2022-12-16T06:32:56.342Z,9.53
2022-12-16T06:35:43.502Z,9.50
2022-12-16T06:38:30.561Z,9.97
2022-12-16T06:41:16.676Z,10.37
2022-12-16T06:44:08.265Z,10.07
2022-12-16T06:46:54.033Z,9.67
2022-12-16T06:50:01.093Z,8.47
2022-12-16T06:52:51.601Z,9.40
2022-12-16T06:55:37.435Z,8.30
2022-12-16T06:58:23.111Z,8.33
2022-12-16T07:01:09.641Z,7.70
2022-12-16T07:03:55.999Z,8.53
2022-12-16T07:06:41.358Z,10.07
2022-12-16T07:09:28.967Z,9.43
2022-12-16T07:12:16.869Z,10.57
2022-12-16T07:15:05.413Z,10.27
2022-12-16T07:17:53.265Z,11.30
2022-12-16T07:20:39.111Z,11.20
2022-12-16T07:23:24.482Z,10.60
2022-12-16T07:26:11.964Z,9.30
2022-12-16T07:28:57.998Z,9.77
2022-12-16T07:32:02.223Z,10.43
2022-12-16T07:34:50.317Z,8.13
2022-12-16T07:37:42.624Z,9.10
2022-12-16T07:40:29.307Z,9.43
2022-12-16T07:43:29.013Z,9.27
2022-12-16T07:46:15.433Z,9.60
2022-12-16T07:49:03.074Z,8.90
2022-12-16T07:51:49.821Z,8.97
2022-12-16T07:54:35.576Z,7.90
2022-12-16T07:57:22.594Z,8.93
2022-12-16T08:00:10.288Z,7.90
2022-12-16T08:02:56.139Z,9.13
2022-12-16T08:05:42.028Z,9.20
2022-12-16T08:08:27.741Z,8.53
2022-12-16T08:11:13.579Z,10.10
2022-12-16T08:13:59.951Z,8.80
2022-12-16T08:16:47.009Z,8.10
2022-12-16T08:19:33.727Z,8.00
2022-12-16T08:22:19.387Z,9.70
2022-12-16T08:25:19.935Z,8.07
2022-12-16T08:28:05.807Z,7.03
2022-12-16T08:30:51.592Z,7.37
2022-12-16T08:33:42.487Z,8.40
2022-12-16T08:36:28.391Z,7.83
2022-12-16T08:39:13.923Z,9.00
2022-12-16T08:41:59.254Z,8.30
2022-12-16T08:44:44.607Z,8.73
2022-12-16T08:47:30.298Z,10.63
2022-12-16T08:50:17.059Z,8.40
2022-12-16T08:53:02.736Z,9.27
2022-12-16T08:55:48.229Z,10.00
2022-12-16T08:58:34.382Z,8.40
2022-12-16T09:01:19.980Z,8.37
2022-12-16T09:04:05.374Z,10.00
2022-12-16T09:06:52.398Z,9.67
2022-12-16T09:09:39.671Z,9.63
2022-12-16T09:12:26.377Z,10.50
2022-12-16T09:15:16.426Z,10.97
2022-12-16T09:18:01.987Z,10.87
2022-12-16T09:20:47.699Z,11.30
2022-12-16T09:23:34.880Z,9.80
2022-12-16T09:26:20.431Z,9.53
2022-12-16T09:29:06.030Z,11.77
2022-12-16T09:31:51.515Z,12.00
2022-12-16T09:34:36.975Z,10.37
2022-12-16T09:37:22.695Z,10.20
2022-12-16T09:40:09.772Z,10.50
2022-12-16T09:43:07.514Z,10.23
2022-12-16T09:46:03.703Z,10.43
2022-12-16T09:48:58.365Z,9.73
2022-12-16T09:51:44.846Z,10.27
2022-12-16T09:54:33.648Z,10.20
2022-12-16T09:57:25.660Z,11.30
2022-12-16T10:00:27.448Z,10.70
2022-12-16T10:03:14.820Z,11.40
2022-12-16T10:06:13.420Z,13.93
2022-12-16T10:09:05.738Z,10.70
2022-12-16T10:12:06.196Z,10.27
2022-12-16T10:14:59.712Z,9.37
2022-12-16T10:17:45.375Z,10.80
2022-12-16T10:20:39.400Z,10.97
2022-12-16T10:23:36.526Z,10.80
2022-12-16T10:26:26.751Z,10.33
2022-12-16T10:29:20.917Z,9.93
2022-12-16T10:32:07.617Z,9.93
2022-12-16T10:34:58.428Z,8.60
2022-12-16T10:37:51.095Z,11.23
2022-12-16T10:40:40.494Z,9.90
2022-12-16T10:43:38.785Z,10.73
2022-12-16T10:46:30.588Z,10.70
2022-12-16T10:49:17.695Z,10.30
2022-12-16T10:52:08.938Z,10.80
2022-12-16T10:55:00.225Z,11.03
2022-12-16T10:57:59.628Z,9.73
2022-12-16T11:00:59.625Z,9.80
2022-12-16T11:03:47.559Z,11.30
2022-12-16T11:06:39.696Z,10.70
2022-12-16T11:09:50.551Z,9.43
2022-12-16T11:12:42.910Z,10.50
2022-12-16T11:15:46.390Z,11.57
2022-12-16T11:18:34.337Z,11.37
2022-12-16T11:21:27.621Z,12.17
2022-12-16T11:24:33.887Z,10.97
2022-12-16T11:27:21.502Z,11.10
2022-12-16T11:30:12.424Z,10.53
2022-12-16T11:33:02.187Z,10.70
2022-12-16T11:35:50.860Z,11.63
2022-12-16T11:38:46.815Z,11.40
2022-12-16T11:41:42.589Z,12.00
2022-12-16T11:44:36.180Z,11.17
2022-12-16T11:47:23.720Z,11.63
2022-12-16T11:50:18.400Z,11.27
2022-12-16T11:53:13.860Z,12.87
2022-12-16T11:56:07.731Z,11.97
2022-12-16T11:59:04.302Z,11.20
2022-12-16T12:01:55.473Z,11.73
2022-12-16T12:04:41.423Z,12.73
2022-12-16T12:07:45.901Z,11.93
2022-12-16T12:11:01.855Z,10.70
2022-12-16T12:14:08.942Z,12.03
2022-12-16T12:17:04.127Z,12.30
2022-12-16T12:20:03.216Z,11.80
2022-12-16T12:22:54.198Z,13.30
2022-12-16T12:25:46.672Z,11.63
2022-12-16T12:28:46.906Z,12.47
2022-12-16T12:31:50.771Z,11.03
2022-12-16T12:34:47.199Z,11.00
2022-12-16T12:37:41.692Z,14.10
2022-12-16T12:40:40.796Z,12.30
2022-12-16T12:43:39.779Z,11.97
2022-12-16T12:46:38.773Z,13.90
2022-12-16T12:49:31.842Z,13.57
2022-12-16T12:52:25.425Z,13.13
2022-12-16T12:55:16.793Z,12.00
2022-12-16T12:58:00.928Z,12.20
2022-12-16T13:00:49.153Z,13.10
2022-12-16T13:03:46.982Z,11.17
2022-12-16T13:06:33.656Z,12.80
2022-12-16T13:09:19.615Z,12.80
2022-12-16T13:12:41.307Z,12.73
2022-12-16T13:15:27.488Z,12.37
2022-12-16T13:18:39.834Z,13.67
2022-12-16T13:22:05.958Z,12.80
2022-12-16T13:25:03.167Z,12.30
2022-12-16T13:28:05.054Z,12.70
2022-12-16T13:30:49.260Z,12.20
2022-12-16T13:33:48.575Z,13.43
2022-12-16T13:36:36.632Z,12.93
2022-12-16T13:39:41.561Z,13.50
2022-12-16T13:43:07.284Z,12.43
2022-12-16T13:45:56.372Z,12.60
2022-12-16T13:48:48.857Z,11.47
2022-12-16T13:52:25.525Z,12.87
2022-12-16T13:55:30.496Z,13.43
2022-12-16T13:58:23.888Z,12.93
2022-12-16T14:01:22.619Z,11.80
2022-12-16T14:04:11.300Z,12.90
2022-12-16T14:07:00.637Z,13.67
2022-12-16T14:09:54.215Z,12.10
2022-12-16T14:13:04.001Z,13.40
2022-12-16T14:15:59.473Z,12.73
2022-12-16T14:18:57.392Z,13.03
2022-12-16T14:21:50.066Z,13.00
2022-12-16T14:24:42.439Z,11.70
2022-12-16T14:27:33.493Z,12.53
2022-12-16T14:30:21.713Z,13.10
2022-12-16T14:33:07.191Z,13.60
2022-12-16T14:35:52.870Z,14.17
2022-12-16T14:38:44.028Z,14.27
2022-12-16T14:41:31.283Z,13.57
2022-12-16T14:44:16.961Z,13.33
2022-12-16T14:47:23.562Z,12.47
2022-12-16T14:50:11.340Z,14.37
2022-12-16T14:52:57.810Z,14.10
2022-12-16T14:55:47.260Z,12.93
2022-12-16T14:58:35.298Z,15.00
2022-12-16T15:01:23.760Z,15.90
2022-12-16T15:04:11.514Z,14.43
2022-12-16T15:07:00.253Z,15.40
2022-12-16T15:09:49.409Z,14.83
2022-12-16T15:12:39.974Z,14.10
2022-12-16T15:15:32.556Z,13.97
2022-12-16T15:18:20.207Z,13.87
2022-12-16T15:21:10.829Z,13.77
2022-12-16T15:24:00.371Z,14.27
2022-12-16T15:26:49.054Z,15.23
2022-12-16T15:29:47.569Z,14.00
2022-12-16T15:32:48.227Z,14.30
2022-12-16T15:35:44.561Z,14.57
2022-12-16T15:38:41.045Z,14.40
2022-12-16T15:41:40.160Z,14.30
2022-12-16T15:44:33.038Z,15.57
2022-12-16T15:47:19.088Z,14.77
2022-12-16T15:50:07.162Z,14.07
2022-12-16T15:52:56.380Z,14.27
2022-12-16T15:55:47.613Z,14.43
2022-12-16T15:58:37.812Z,13.73
2022-12-16T16:01:25.049Z,14.07
2022-12-16T16:04:12.405Z,15.47
2022-12-16T16:07:00.574Z,15.17
2022-12-16T16:09:48.126Z,12.97
2022-12-16T16:12:36.532Z,14.13
2022-12-16T16:15:23.455Z,14.03
2022-12-16T16:18:13.349Z,15.10
2022-12-16T16:20:59.376Z,12.27
2022-12-16T16:23:44.838Z,13.40
2022-12-16T16:26:31.762Z,14.53
2022-12-16T16:29:18.910Z,13.17
2022-12-16T16:32:04.943Z,12.93
2022-12-16T16:34:50.628Z,15.10
2022-12-16T16:37:38.300Z,13.70
2022-12-16T16:40:36.157Z,14.43
2022-12-16T16:43:18.031Z,15.27
2022-12-16T16:46:21.182Z,15.30
2022-12-16T16:49:07.468Z,14.60
2022-12-16T16:51:53.238Z,14.60
2022-12-16T16:54:38.666Z,15.40
2022-12-16T16:57:24.504Z,14.77
2022-12-16T17:00:10.143Z,13.80
2022-12-16T17:02:57.337Z,14.97
2022-12-16T17:05:42.856Z,13.70
2022-12-16T17:08:28.678Z,13.50
2022-12-16T17:11:15.174Z,12.33
2022-12-16T17:14:00.683Z,14.10
2022-12-16T17:17:00.815Z,14.03
2022-12-16T17:19:47.675Z,13.97
2022-12-16T17:22:33.494Z,15.13
2022-12-16T17:25:20.987Z,14.47
2022-12-16T17:28:06.592Z,12.87
2022-12-16T17:30:57.452Z,13.50
2022-12-16T17:33:43.588Z,13.73
2022-12-16T17:36:33.034Z,13.83
2022-12-16T17:39:18.679Z,13.73
2022-12-16T17:42:04.316Z,14.40
2022-12-16T17:44:56.225Z,13.63
2022-12-16T17:47:42.693Z,13.53
2022-12-16T17:50:28.699Z,16.40
2022-12-16T17:53:17.430Z,14.07
2022-12-16T17:56:04.259Z,14.93
2022-12-16T17:58:52.441Z,14.87
2022-12-16T18:01:39.674Z,15.17
2022-12-16T18:04:25.863Z,14.07
2022-12-16T18:07:12.219Z,15.17
2022-12-16T18:09:59.526Z,14.87
2022-12-16T18:12:45.440Z,14.63
2022-12-16T18:15:32.077Z,13.97
2022-12-16T18:18:17.539Z,14.03
2022-12-16T18:21:03.778Z,14.80
2022-12-16T18:23:49.846Z,16.63
2022-12-16T18:26:37.153Z,14.53
2022-12-16T18:29:22.710Z,15.40
2022-12-16T18:32:08.996Z,14.17
2022-12-16T18:34:57.378Z,14.47
2022-12-16T18:37:49.911Z,15.50
2022-12-16T18:40:36.053Z,15.03
2022-12-16T18:43:23.765Z,15.10
2022-12-16T18:46:12.561Z,15.80
2022-12-16T18:48:58.079Z,16.40
2022-12-16T18:51:43.592Z,14.67
2022-12-16T18:54:29.005Z,15.10
2022-12-16T18:57:14.381Z,16.20
2022-12-16T19:00:01.171Z,16.33
2022-12-16T19:02:46.843Z,16.00
2022-12-16T19:05:32.312Z,13.63
2022-12-16T19:08:17.935Z,15.20
2022-12-16T19:11:03.560Z,15.97
2022-12-16T19:13:48.829Z,16.13
2022-12-16T19:16:35.635Z,17.20
2022-12-16T19:19:21.326Z,16.20
2022-12-16T19:22:06.946Z,18.60
2022-12-16T19:24:59.701Z,16.50
2022-12-16T19:27:45.420Z,16.70
2022-12-16T19:30:31.034Z,17.50
2022-12-16T19:33:18.014Z,16.67
2022-12-16T19:36:03.384Z,15.63
2022-12-16T19:38:48.873Z,17.30
2022-12-16T19:41:35.456Z,18.63
2022-12-16T19:44:21.171Z,16.67
2022-12-16T19:47:06.970Z,17.40
2022-12-16T19:49:54.721Z,17.40
2022-12-16T19:52:40.400Z,17.17
2022-12-16T19:55:26.318Z,17.33
2022-12-16T19:58:12.195Z,16.17
2022-12-16T20:00:57.912Z,17.33
2022-12-16T20:03:55.212Z,17.63
2022-12-16T20:06:43.619Z,17.07
2022-12-16T20:09:25.562Z,18.75
2022-12-16T20:12:11.409Z,18.17
2022-12-16T20:14:57.857Z,16.73
2022-12-16T20:17:43.575Z,17.90
2022-12-16T20:20:29.751Z,15.40
2022-12-16T20:23:16.839Z,16.60
2022-12-16T20:26:02.300Z,17.10
2022-12-16T20:28:47.993Z,18.07
2022-12-16T20:31:36.174Z,17.20
2022-12-16T20:34:20.826Z,19.50
2022-12-16T20:37:17.898Z,16.10
2022-12-16T20:40:05.000Z,17.90
2022-12-16T20:42:50.439Z,17.57
2022-12-16T20:45:36.626Z,19.00
2022-12-16T20:48:22.822Z,17.88
2022-12-16T20:51:12.930Z,18.33
2022-12-16T20:53:58.682Z,16.70
2022-12-16T20:56:46.266Z,17.63
2022-12-16T20:59:32.078Z,17.37
2022-12-16T21:02:29.072Z,17.93
2022-12-16T21:05:17.958Z,17.93
2022-12-16T21:08:03.637Z,17.80
2022-12-16T21:10:48.901Z,17.37
2022-12-16T21:13:36.810Z,17.50
2022-12-16T21:16:24.995Z,18.47
2022-12-16T21:19:10.986Z,16.90
2022-12-16T21:21:56.863Z,17.57
2022-12-16T21:24:42.436Z,18.63
2022-12-16T21:27:28.564Z,18.37
2022-12-16T21:30:15.236Z,20.37
2022-12-16T21:33:01.023Z,17.93
2022-12-16T21:35:46.606Z,19.37
2022-12-16T21:38:32.020Z,17.87
2022-12-16T21:41:17.440Z,18.40
2022-12-16T21:44:02.923Z,17.80
2022-12-16T21:46:49.972Z,18.30
2022-12-16T21:49:35.314Z,18.00
2022-12-16T21:52:20.863Z,19.13
2022-12-16T21:55:06.212Z,17.90
2022-12-16T21:57:53.277Z,18.27
2022-12-16T22:00:39.442Z,18.73
2022-12-16T22:03:26.372Z,17.57
2022-12-16T22:06:11.660Z,19.17
2022-12-16T22:08:57.303Z,19.17
2022-12-16T22:11:41.827Z,18.27
2022-12-16T22:14:27.379Z,17.83
2022-12-16T22:17:13.094Z,17.37
2022-12-16T22:20:00.323Z,18.83
2022-12-16T22:22:45.946Z,17.27
2022-12-16T22:25:31.714Z,20.47
2022-12-16T22:28:17.240Z,17.40
2022-12-16T22:31:02.897Z,18.80
2022-12-16T22:33:48.953Z,19.30
2022-12-16T22:36:35.940Z,19.50
2022-12-16T22:39:21.423Z,18.50
2022-12-16T22:42:06.985Z,17.87
2022-12-16T22:44:52.506Z,17.90
2022-12-16T22:47:42.212Z,18.50
2022-12-16T22:50:33.040Z,18.87
2022-12-16T22:53:19.624Z,17.33
2022-12-16T22:56:09.170Z,18.00
2022-12-16T22:58:55.211Z,18.33
2022-12-16T23:01:42.652Z,18.60
2022-12-16T23:04:28.518Z,20.23
2022-12-16T23:07:14.551Z,18.80
2022-12-16T23:10:01.396Z,19.00
2022-12-16T23:12:46.779Z,18.73
2022-12-16T23:15:32.944Z,19.60
2022-12-16T23:18:18.475Z,20.80
2022-12-16T23:21:05.186Z,19.97
2022-12-16T23:23:51.042Z,20.10
2022-12-16T23:26:39.593Z,19.57
2022-12-16T23:29:25.161Z,19.13
2022-12-16T23:32:10.832Z,20.10
2022-12-16T23:34:59.457Z,19.10
2022-12-16T23:37:44.919Z,18.20
2022-12-16T23:40:39.098Z,20.40
2022-12-16T23:43:26.293Z,18.03
2022-12-16T23:46:11.633Z,19.37
2022-12-16T23:48:57.181Z,19.70
2022-12-16T23:51:42.937Z,18.37
2022-12-16T23:54:28.451Z,18.90
2022-12-16T23:57:14.279Z,17.20
